KLTS/LTS METAR and TAF weather

Enter ICAO airport designator
Station Type Date Time Source
KLTS METAR 2018/12/15 21:56 UTC NOAA

KLTS 152156Z AUTO 15009KT 10SM CLR 15/M12 A3013 RMK AO2 SLP206 T01481125 $


Station Type Date Time Source
KLTS Decoded METAR 2018/12/15 21:56 UTC NOAA

Altus Air Force Base, OK, United States (KLTS) 34-39N 099-16W 420M
Dec 15, 2018 - 04:56 PM EST / 2018.12.15 2156 UTC
Wind: from the SSE (150 degrees) at 10 MPH (9 KT):0
Visibility: 10 mile(s):0
Sky conditions: clear
Temperature: 58.6 F (14.8 C)
Dew Point: 9.5 F (-12.5 C)
Relative Humidity: 13%
Pressure (altimeter): 30.13 in. Hg (1020 hPa)
ob: KLTS 152156Z AUTO 15009KT 10SM CLR 15/M12 A3013 RMK AO2 SLP206 T01481125
cycle: 22

Station Type Date Time Source
KLTS TAF 2018/12/15 01:09 UTC NOAA

TAF KLTS 150100Z 1501/1607 33010KT 9999 SKC QNH3015INS
BECMG 1520/1521 18009KT 9999 FEW220 QNH3017INS TX14/1520Z TN01/1511Z LAST NO
AMDS AFT 1507 NEXT 1709


Example: see airport list